42.2°F
Current conditions from King Hill
Updated every 5 minutes
 
  Wednesday May 6, 2026

Observations for Westford

Westford

44° 37' 38"N, 73° 02' 30"W, Elevation 850 ft.
Eastern Time

Hourly observations for the last 72 hours

Date Time Temperature (°F) Humi-
dity

(%)
Wind
(mph)
Pressure Rain (in) Sun
(W/m2)
UV ET
(in)
Air Dew 6 Hour 1 Hr 3 Hr 6 Hr Day
Alt
(in)
Sea
Level

(mb)
Max Min
6 21:00 42.2 40.6 94 Calm 29.76 1007.8 0.57 0 0.0 0.011
6 20:00 42.6 40.7 43.8 42.5 93 Calm 29.74 1007.0 0.01 0.07 0.57 0 0.0 0.011
6 19:00 43.1 41.2 93 NW 0 G 2 29.72 1006.3 0.57 30 0.0 0.010
6 18:00 42.9 41.0 93 Calm 29.72 1006.6 0.01 0.57 33 0.0 0.009
6 17:00 42.7 40.8 93 W 2 G 6 29.71 1006.3 0.03 0.06 0.56 83 0.0 0.008
6 16:00 43.6 41.7 93 N 0 G 4 29.71 1006.1 0.01 0.53 53 0.0 0.007
6 15:00 43.3 41.4 93 NNW 1 G 4 29.70 1005.9 0.02 0.52 135 0.0 0.006
6 14:00 42.8 41.2 44.3 41.5 94 Calm 29.72 1006.6 0.02 0.21 0.34 0.50 97 0.0 0.005
6 13:00 42.0 40.1 93 NNW 1 G 8 29.72 1006.6 0.07 0.48 95 0.0 0.004
6 12:00 41.8 39.6 92 NW 1 G 5 29.74 1007.2 0.12 0.41 76 0.0 0.003
6 11:00 42.5 40.3 92 N 0 G 4 29.73 1006.9 0.06 0.13 0.29 37 0.0 0.002
6 10:00 42.6 40.4 92 NNW 2 G 8 29.74 1007.0 0.02 0.23 53 0.0 0.001
6 09:00 42.6 40.2 91 WNW 0 G 3 29.75 1007.5 0.05 0.21 69 0.0 0.000
6 08:00 44.3 42.1 49.4 44.3 92 W 0 G 2 29.77 1008.1 0.05 0.09 0.10 0.16 19 0.0 0.000
6 07:00 45.2 43.0 92 N 0 G 2 29.75 1007.4 0.01 0.11 9 0.0 0.000
6 06:00 45.4 42.9 91 N 0 G 3 29.74 1007.2 0.03 0.10 5 0.0 0.000
6 05:00 46.6 44.1 91 NW 1 G 3 29.75 1007.6 0.01 0.07 0 0.0 0.000
6 04:00 46.9 44.1 90 WSW 0 G 3 29.76 1007.7 0.01 0.07 0 0.0 0.000
6 03:00 48.1 45.6 91 Calm 29.74 1007.1 0.06 0 0.0 0.000
6 02:00 49.4 46.9 62.2 49.4 91 NW 0 G 3 29.74 1007.2 0.01 0.13 0.14 0.06 0 0.0 0.000
6 01:00 50.5 48.0 91 Calm 29.75 1007.3 0.06 0.05 0 0.0 0.000
6 00:00 51.5 48.1 88 Calm 29.74 1007.0 0.06 0.34 0 0.0 0.121
5 23:00 55.4 48.0 76 W 6 G 13 29.71 1006.1 0.01 0.01 0.28 0 0.0 0.119
5 22:00 58.2 50.7 76 W 6 G 16 29.70 1005.7 0.27 0 0.0 0.118
5 21:00 59.8 55.0 84 S 2 G 5 29.65 1004.2 0.27 0 0.0 0.117
5 20:00 62.2 56.0 72.2 58.5 80 SSE 3 G 9 29.63 1003.3 0.27 0.27 0 0.0 0.116
5 19:00 60.4 55.9 85 S 0 G 5 29.61 1002.6 0.27 42 0.0 0.114
5 18:00 60.9 55.4 82 S 2 G 17 29.60 1002.6 0.27 69 0.0 0.113
5 17:00 58.5 54.3 86 SSE 2 G 7 29.58 1001.9 0.12 0.27 0.27 54 0.0 0.111
5 16:00 61.2 56.7 85 WSW 9 G 15 29.59 1002.1 0.07 0.15 5 0.0 0.109
5 15:00 62.2 57.3 84 SW 1 G 12 29.55 1000.7 0.08 0.08 32 0.0 0.105
5 14:00 72.2 53.6 76.0 59.8 52 S 6 G 18 29.50 999.2 0.00 123 0.0 0.096
5 13:00 75.8 54.2 47 S 9 G 23 29.51 999.4 0.00 425 0.0 0.077
5 12:00 72.0 54.0 53 SSE 9 G 20 29.56 1000.9 0.00 536 0.0 0.058
5 11:00 70.2 52.8 54 S 8 G 20 29.57 1001.4 0.00 601 0.0 0.042
5 10:00 63.6 49.0 59 S 10 G 23 29.59 1002.2 0.00 183 0.0 0.030
5 09:00 63.4 48.4 58 SSE 9 G 24 29.60 1002.4 0.00 471 0.0 0.022
5 08:00 59.8 45.9 59.8 57.9 60 SSE 9 G 17 29.60 1002.4 0.00 128 0.0 0.018
5 07:00 58.6 45.2 61 S 10 G 22 29.60 1002.3 0.00 116 0.0 0.015
5 06:00 58.2 44.4 60 S 8 G 19 29.60 1002.6 0.00 9 0.0 0.013
5 05:00 58.6 43.9 58 S 7 G 15 29.60 1002.5 0.00 0 0.0 0.010
5 04:00 58.8 43.2 56 S 8 G 18 29.61 1002.7 0.00 0 0.0 0.007
5 03:00 58.9 42.8 55 S 6 G 21 29.61 1002.7 0.00 0 0.0 0.004
5 02:00 58.2 42.1 60.8 54.7 55 SSE 3 G 13 29.61 1002.7 0.00 0 0.0 0.002
5 01:00 57.6 42.5 57 S 3 G 14 29.62 1003.0 0.00 0 0.0 0.000
5 00:00 55.4 43.0 63 S 1 G 9 29.63 1003.3 0.05 0 0.0 0.098
4 23:00 55.9 42.7 61 S 3 G 7 29.63 1003.6 0.05 0 0.0 0.097
4 22:00 55.4 43.0 63 S 0 G 3 29.64 1003.9 0.05 0 0.0 0.096
4 21:00 57.0 42.4 58 S 3 G 6 29.64 1003.8 0.05 0 0.0 0.095
4 20:00 60.8 43.6 68.5 60.8 53 SSW 1 G 7 29.63 1003.3 0.05 0 0.0 0.093
4 19:00 64.5 45.5 50 SSW 2 G 7 29.61 1002.7 0.05 76 0.0 0.090
4 18:00 66.0 45.8 48 S 3 G 9 29.60 1002.4 0.05 160 0.0 0.085
4 17:00 65.7 45.5 48 SSW 3 G 12 29.60 1002.4 0.05 515 0.0 0.074
4 16:00 67.2 46.3 47 S 4 G 13 29.61 1002.8 0.05 258 0.0 0.057
4 15:00 63.4 46.5 54 SSW 5 G 12 29.64 1003.6 0.05 766 0.0 0.040
4 14:00 61.4 47.4 61.5 44.2 60 SSW 8 G 14 29.67 1004.6 0.05 0.05 837 0.0 0.023
4 13:00 55.0 46.9 74 S 3 G 14 29.68 1005.0 0.05 504 0.0 0.015
4 12:00 47.7 43.4 85 SSE 4 G 11 29.68 1005.3 0.05 244 0.0 0.012
4 11:00 44.4 40.8 87 S 4 G 9 29.70 1005.7 0.01 0.05 0.05 40 0.0 0.011
4 10:00 44.5 40.6 86 S 3 G 7 29.69 1005.5 0.04 0.04 39 0.0 0.010
4 09:00 47.4 39.5 74 S 4 G 20 29.67 1004.7 0.00 23 0.0 0.008
4 08:00 46.9 40.7 46.9 41.8 79 S 10 G 21 29.66 1004.3 0.00 98 0.0 0.006
4 07:00 44.4 39.9 84 SSE 5 G 14 29.68 1005.0 0.00 18 0.0 0.005
4 06:00 42.9 38.7 85 S 5 G 12 29.69 1005.4 0.00 0 0.0 0.005
4 05:00 43.5 37.4 79 SSE 6 G 15 29.69 1005.4 0.00 0 0.0 0.004
4 04:00 42.6 34.9 74 SSE 3 G 9 29.70 1005.9 0.00 0 0.0 0.003
4 03:00 42.0 32.2 68 SSE 4 G 10 29.70 1006.0 0.00 0 0.0 0.002
4 02:00 42.2 30.9 45.2 36.0 64 SSE 2 G 12 29.71 1006.2 0.00 0 0.0 0.001
4 01:00 41.5 29.8 63 S 3 G 11 29.72 1006.4 0.00 0 0.0 0.000
4 00:00 36.6 28.8 73 S 3 G 5 29.73 1006.7 0.00 0 0.0 0.077
3 23:00 37.3 28.4 70 S 1 G 5 29.73 1006.8 0.00 0 0.0 0.076
3 22:00 37.0 29.2 73 S 3 G 5 29.74 1007.1 0.00 0 0.0 0.075

Data generated by WxSolution Version 1.9.2, Build 2023.03.05.


 
 
Current Radar Loop:

Sun Position

Copyright © WestfordWeather.net 2007-2026. All rights reserved.